sensor_id;sensor_type;location;lat;lon;timestamp;pressure;altitude;pressure_sealevel;temperature;humidity
22311;BME280;11323;49.610;11.016;2023-04-30T00:03:44;98472.13;;;17.64;58.85
22311;BME280;11323;49.610;11.016;2023-04-30T00:08:44;98476.56;;;17.64;58.78
22311;BME280;11323;49.610;11.016;2023-04-30T00:13:44;98475.75;;;17.63;58.92
22311;BME280;11323;49.610;11.016;2023-04-30T00:18:45;98475.75;;;17.63;58.86
22311;BME280;11323;49.610;11.016;2023-04-30T00:23:45;98481.69;;;17.65;58.68
22311;BME280;11323;49.610;11.016;2023-04-30T00:28:45;98472.84;;;17.58;59.03
22311;BME280;11323;49.610;11.016;2023-04-30T00:33:46;98479.09;;;17.57;58.86
22311;BME280;11323;49.610;11.016;2023-04-30T00:38:46;98485.75;;;17.53;59.33
22311;BME280;11323;49.610;11.016;2023-04-30T00:43:47;98482.28;;;17.52;58.59
22311;BME280;11323;49.610;11.016;2023-04-30T00:48:47;98486.94;;;17.50;58.98
22311;BME280;11323;49.610;11.016;2023-04-30T00:53:48;98488.56;;;17.51;58.96
22311;BME280;11323;49.610;11.016;2023-04-30T00:58:48;98500.72;;;17.52;58.86
22311;BME280;11323;49.610;11.016;2023-04-30T01:03:51;98502.56;;;17.52;59.06
22311;BME280;11323;49.610;11.016;2023-04-30T01:08:52;98495.00;;;17.49;58.71
22311;BME280;11323;49.610;11.016;2023-04-30T01:14:22;98504.75;;;17.48;58.91
22311;BME280;11323;49.610;11.016;2023-04-30T01:19:41;98510.56;;;17.43;58.87
22311;BME280;11323;49.610;11.016;2023-04-30T01:24:52;98504.63;;;17.41;59.01
22311;BME280;11323;49.610;11.016;2023-04-30T01:30:02;98501.38;;;17.39;59.03
22311;BME280;11323;49.610;11.016;2023-04-30T01:35:03;98502.91;;;17.34;59.19
22311;BME280;11323;49.610;11.016;2023-04-30T01:40:37;98503.34;;;17.37;58.77
22311;BME280;11323;49.610;11.016;2023-04-30T01:45:53;98508.97;;;17.34;59.27
22311;BME280;11323;49.610;11.016;2023-04-30T01:51:41;98513.25;;;17.35;59.09
22311;BME280;11323;49.610;11.016;2023-04-30T01:56:44;98510.00;;;17.33;59.00
22311;BME280;11323;49.610;11.016;2023-04-30T02:01:47;98522.31;;;17.33;59.25
22311;BME280;11323;49.610;11.016;2023-04-30T02:06:47;98518.88;;;17.32;58.94
22311;BME280;11323;49.610;11.016;2023-04-30T02:11:47;98528.78;;;17.30;59.09
22311;BME280;11323;49.610;11.016;2023-04-30T02:16:48;98530.78;;;17.28;58.99
22311;BME280;11323;49.610;11.016;2023-04-30T02:21:48;98529.78;;;17.29;59.06
22311;BME280;11323;49.610;11.016;2023-04-30T02:26:49;98533.41;;;17.28;58.70
22311;BME280;11323;49.610;11.016;2023-04-30T02:31:49;98542.28;;;17.27;59.05
22311;BME280;11323;49.610;11.016;2023-04-30T02:36:50;98536.03;;;17.28;58.80
22311;BME280;11323;49.610;11.016;2023-04-30T02:41:50;98535.75;;;17.23;58.86
22311;BME280;11323;49.610;11.016;2023-04-30T02:46:51;98526.84;;;17.24;58.76
22311;BME280;11323;49.610;11.016;2023-04-30T02:51:52;98539.41;;;17.22;58.95
22311;BME280;11323;49.610;11.016;2023-04-30T02:56:53;98546.66;;;17.20;58.93
22311;BME280;11323;49.610;11.016;2023-04-30T03:01:53;98537.09;;;17.19;58.89
22311;BME280;11323;49.610;11.016;2023-04-30T03:06:54;98539.09;;;17.17;58.92
22311;BME280;11323;49.610;11.016;2023-04-30T03:11:55;98545.16;;;17.17;58.88
22311;BME280;11323;49.610;11.016;2023-04-30T03:16:56;98544.72;;;17.13;58.94
22311;BME280;11323;49.610;11.016;2023-04-30T03:21:56;98537.78;;;17.12;59.06
22311;BME280;11323;49.610;11.016;2023-04-30T03:26:57;98546.69;;;17.11;58.97
22311;BME280;11323;49.610;11.016;2023-04-30T03:31:57;98538.19;;;17.09;59.17
22311;BME280;11323;49.610;11.016;2023-04-30T03:36:57;98531.25;;;17.08;58.74
22311;BME280;11323;49.610;11.016;2023-04-30T03:41:58;98532.25;;;17.07;58.82
22311;BME280;11323;49.610;11.016;2023-04-30T03:46:58;98534.06;;;17.07;59.03
22311;BME280;11323;49.610;11.016;2023-04-30T03:51:59;98535.88;;;17.06;58.96
22311;BME280;11323;49.610;11.016;2023-04-30T03:57:00;98540.50;;;17.04;58.96
22311;BME280;11323;49.610;11.016;2023-04-30T04:02:03;98531.59;;;17.05;58.67
22311;BME280;11323;49.610;11.016;2023-04-30T04:07:04;98533.59;;;17.03;58.76
22311;BME280;11323;49.610;11.016;2023-04-30T04:12:08;98540.84;;;17.01;59.08
22311;BME280;11323;49.610;11.016;2023-04-30T04:17:10;98549.75;;;17.00;59.13
22311;BME280;11323;49.610;11.016;2023-04-30T04:22:11;98545.66;;;16.97;58.92
22311;BME280;11323;49.610;11.016;2023-04-30T04:27:11;98543.84;;;16.98;58.77
22311;BME280;11323;49.610;11.016;2023-04-30T04:32:11;98543.19;;;16.96;59.02
22311;BME280;11323;49.610;11.016;2023-04-30T04:37:14;98553.88;;;16.94;58.51
22311;BME280;11323;49.610;11.016;2023-04-30T04:42:16;98561.63;;;16.96;58.74
22311;BME280;11323;49.610;11.016;2023-04-30T04:47:17;98559.00;;;16.96;58.69
22311;BME280;11323;49.610;11.016;2023-04-30T04:52:20;98555.72;;;16.94;59.05
22311;BME280;11323;49.610;11.016;2023-04-30T04:57:21;98552.09;;;16.95;58.74
22311;BME280;11323;49.610;11.016;2023-04-30T05:02:21;98549.13;;;16.90;58.85
22311;BME280;11323;49.610;11.016;2023-04-30T05:07:23;98563.78;;;16.92;58.78
22311;BME280;11323;49.610;11.016;2023-04-30T05:12:23;98568.19;;;16.92;58.78
22311;BME280;11323;49.610;11.016;2023-04-30T05:17:24;98562.13;;;16.91;59.15
22311;BME280;11323;49.610;11.016;2023-04-30T05:22:24;98576.44;;;16.97;58.81
22311;BME280;11323;49.610;11.016;2023-04-30T05:27:25;98571.97;;;16.97;58.85
22311;BME280;11323;49.610;11.016;2023-04-30T05:32:26;98573.63;;;16.98;58.62
22311;BME280;11323;49.610;11.016;2023-04-30T05:37:27;98578.88;;;16.98;58.56
22311;BME280;11323;49.610;11.016;2023-04-30T05:42:27;98576.78;;;16.94;58.66
22311;BME280;11323;49.610;11.016;2023-04-30T05:47:27;98584.84;;;16.92;58.42
22311;BME280;11323;49.610;11.016;2023-04-30T05:52:28;98586.81;;;16.90;58.44
22311;BME280;11323;49.610;11.016;2023-04-30T05:57:28;98584.19;;;16.90;58.71
22311;BME280;11323;49.610;11.016;2023-04-30T06:02:28;98584.38;;;16.89;58.48
22311;BME280;11323;49.610;11.016;2023-04-30T06:07:29;98577.91;;;16.91;58.52
22311;BME280;11323;49.610;11.016;2023-04-30T06:12:29;98582.19;;;16.92;58.29
22311;BME280;11323;49.610;11.016;2023-04-30T06:17:30;98592.34;;;17.04;58.92
22311;BME280;11323;49.610;11.016;2023-04-30T06:22:30;98590.53;;;17.04;58.94
22311;BME280;11323;49.610;11.016;2023-04-30T06:27:31;98586.09;;;17.05;58.90
22311;BME280;11323;49.610;11.016;2023-04-30T06:32:31;98585.91;;;17.06;58.45
22311;BME280;11323;49.610;11.016;2023-04-30T06:37:31;98583.63;;;17.03;58.79
22311;BME280;11323;49.610;11.016;2023-04-30T06:42:36;98588.56;;;17.06;58.69
22311;BME280;11323;49.610;11.016;2023-04-30T06:47:37;98584.28;;;17.05;58.74
22311;BME280;11323;49.610;11.016;2023-04-30T06:52:38;98577.38;;;17.04;58.92
22311;BME280;11323;49.610;11.016;2023-04-30T06:57:38;98570.78;;;17.00;59.00
22311;BME280;11323;49.610;11.016;2023-04-30T07:02:39;98585.91;;;17.06;58.58
22311;BME280;11323;49.610;11.016;2023-04-30T07:07:39;98583.47;;;17.05;58.86
22311;BME280;11323;49.610;11.016;2023-04-30T07:12:40;98585.72;;;17.08;58.52
22311;BME280;11323;49.610;11.016;2023-04-30T07:17:40;98583.09;;;17.08;58.36
22311;BME280;11323;49.610;11.016;2023-04-30T07:22:41;98580.66;;;17.06;58.58
22311;BME280;11323;49.610;11.016;2023-04-30T07:27:45;98584.28;;;17.05;58.39
22311;BME280;11323;49.610;11.016;2023-04-30T07:32:46;98589.53;;;17.05;58.64
22311;BME280;11323;49.610;11.016;2023-04-30T07:37:46;98588.38;;;17.08;58.34
22311;BME280;11323;49.610;11.016;2023-04-30T07:42:47;98584.09;;;17.07;58.42
22311;BME280;11323;49.610;11.016;2023-04-30T07:47:47;98589.19;;;17.08;58.20
22311;BME280;11323;49.610;11.016;2023-04-30T07:52:48;98580.84;;;17.05;57.90
22311;BME280;11323;49.610;11.016;2023-04-30T07:57:49;98584.94;;;17.07;57.84
22311;BME280;11323;49.610;11.016;2023-04-30T08:02:50;98580.47;;;17.08;58.26
22311;BME280;11323;49.610;11.016;2023-04-30T08:07:50;98581.94;;;17.10;57.63
22311;BME280;11323;49.610;11.016;2023-04-30T08:12:50;98582.28;;;17.07;57.77
22311;BME280;11323;49.610;11.016;2023-04-30T08:17:52;98587.91;;;17.04;57.34
22311;BME280;11323;49.610;11.016;2023-04-30T08:22:52;98572.88;;;16.81;53.00
22311;BME280;11323;49.610;11.016;2023-04-30T08:27:53;98565.38;;;16.70;52.46
22311;BME280;11323;49.610;11.016;2023-04-30T08:32:53;98571.50;;;16.62;51.18
22311;BME280;11323;49.610;11.016;2023-04-30T08:37:54;98564.44;;;16.63;50.12
22311;BME280;11323;49.610;11.016;2023-04-30T08:43:13;98558.84;;;16.58;49.09
22311;BME280;11323;49.610;11.016;2023-04-30T08:48:14;98552.06;;;16.63;49.55
22311;BME280;11323;49.610;11.016;2023-04-30T08:53:16;98561.75;;;16.71;48.68
22311;BME280;11323;49.610;11.016;2023-04-30T08:58:17;98553.25;;;16.61;47.22
22311;BME280;11323;49.610;11.016;2023-04-30T09:03:17;98550.63;;;16.61;46.95
22311;BME280;11323;49.610;11.016;2023-04-30T09:08:18;98567.13;;;16.55;47.29
22311;BME280;11323;49.610;11.016;2023-04-30T09:13:19;98552.59;;;16.59;47.07
22311;BME280;11323;49.610;11.016;2023-04-30T09:18:19;98563.06;;;16.67;48.07
22311;BME280;11323;49.610;11.016;2023-04-30T09:23:20;98564.44;;;16.63;46.55
22311;BME280;11323;49.610;11.016;2023-04-30T09:28:22;98555.75;;;16.54;46.07
22311;BME280;11323;49.610;11.016;2023-04-30T09:33:22;98562.19;;;16.51;45.53
22311;BME280;11323;49.610;11.016;2023-04-30T09:38:32;98557.56;;;16.54;48.02
22311;BME280;11323;49.610;11.016;2023-04-30T09:43:32;98554.63;;;16.48;45.68
22311;BME280;11323;49.610;11.016;2023-04-30T09:48:32;98559.25;;;16.46;45.14
22311;BME280;11323;49.610;11.016;2023-04-30T09:53:36;98556.78;;;16.45;45.80
22311;BME280;11323;49.610;11.016;2023-04-30T09:58:37;98549.75;;;16.37;44.60
22311;BME280;11323;49.610;11.016;2023-04-30T10:03:39;98553.38;;;16.36;47.80
22311;BME280;11323;49.610;11.016;2023-04-30T10:08:42;98547.78;;;16.39;48.21
22311;BME280;11323;49.610;11.016;2023-04-30T10:18:53;98533.59;;;16.48;47.20
22311;BME280;11323;49.610;11.016;2023-04-30T10:23:55;98524.06;;;16.47;47.83
22311;BME280;11323;49.610;11.016;2023-04-30T10:28:57;98521.09;;;16.50;48.23
22311;BME280;11323;49.610;11.016;2023-04-30T10:39:20;98494.72;;;16.59;49.11
22311;BME280;11323;49.610;11.016;2023-04-30T10:44:21;98515.09;;;16.65;49.87
22311;BME280;11323;49.610;11.016;2023-04-30T10:49:24;98508.19;;;16.64;50.12
22311;BME280;11323;49.610;11.016;2023-04-30T10:54:35;98503.19;;;16.69;50.72
22311;BME280;11323;49.610;11.016;2023-04-30T10:59:37;98507.94;;;16.74;50.74
22311;BME280;11323;49.610;11.016;2023-04-30T11:10:12;98488.97;;;16.78;51.21
22311;BME280;11323;49.610;11.016;2023-04-30T11:15:14;98485.34;;;16.79;51.03
22311;BME280;11323;49.610;11.016;2023-04-30T11:20:20;98481.41;;;16.83;51.49
22311;BME280;11323;49.610;11.016;2023-04-30T11:25:21;98474.16;;;16.86;51.36
22311;BME280;11323;49.610;11.016;2023-04-30T11:30:22;98464.25;;;16.88;51.67
22311;BME280;11323;49.610;11.016;2023-04-30T11:35:23;98470.63;;;16.93;51.94
22311;BME280;11323;49.610;11.016;2023-04-30T11:40:23;98460.94;;;16.94;51.94
22311;BME280;11323;49.610;11.016;2023-04-30T11:45:24;98452.03;;;16.95;52.51
22311;BME280;11323;49.610;11.016;2023-04-30T11:50:32;98446.06;;;17.01;52.96
22311;BME280;11323;49.610;11.016;2023-04-30T11:55:32;98454.25;;;17.06;52.67
22311;BME280;11323;49.610;11.016;2023-04-30T12:00:32;98444.53;;;17.07;52.73
22311;BME280;11323;49.610;11.016;2023-04-30T12:05:33;98428.91;;;17.05;52.85
22311;BME280;11323;49.610;11.016;2023-04-30T12:10:34;98429.81;;;17.12;52.84
22311;BME280;11323;49.610;11.016;2023-04-30T12:15:35;98437.72;;;17.12;53.35
22311;BME280;11323;49.610;11.016;2023-04-30T12:20:38;98432.47;;;17.12;53.16
22311;BME280;11323;49.610;11.016;2023-04-30T12:25:40;98429.78;;;17.21;53.59
22311;BME280;11323;49.610;11.016;2023-04-30T12:30:42;98430.56;;;17.21;53.55
22311;BME280;11323;49.610;11.016;2023-04-30T12:35:43;98427.41;;;17.26;54.08
22311;BME280;11323;49.610;11.016;2023-04-30T12:40:46;98417.31;;;17.29;54.00
22311;BME280;11323;49.610;11.016;2023-04-30T12:45:48;98426.31;;;17.35;54.33
22311;BME280;11323;49.610;11.016;2023-04-30T12:50:57;98410.97;;;17.39;54.63
22311;BME280;11323;49.610;11.016;2023-04-30T12:56:16;98417.06;;;17.39;54.64
22311;BME280;11323;49.610;11.016;2023-04-30T13:01:20;98425.59;;;17.41;54.75
22311;BME280;11323;49.610;11.016;2023-04-30T13:06:22;98420.13;;;17.43;54.25
22311;BME280;11323;49.610;11.016;2023-04-30T13:11:22;98404.16;;;17.44;54.65
22311;BME280;11323;49.610;11.016;2023-04-30T13:16:23;98397.50;;;17.49;54.69
22311;BME280;11323;49.610;11.016;2023-04-30T13:21:24;98388.16;;;17.46;54.75
22311;BME280;11323;49.610;11.016;2023-04-30T13:26:24;98379.44;;;17.45;54.90
22311;BME280;11323;49.610;11.016;2023-04-30T13:31:25;98384.34;;;17.49;54.91
22311;BME280;11323;49.610;11.016;2023-04-30T13:36:26;98380.06;;;17.48;54.64
22311;BME280;11323;49.610;11.016;2023-04-30T13:41:26;98383.34;;;17.50;54.81
22311;BME280;11323;49.610;11.016;2023-04-30T13:46:27;98366.72;;;17.49;54.93
22311;BME280;11323;49.610;11.016;2023-04-30T13:51:27;98368.38;;;17.50;54.65
22311;BME280;11323;49.610;11.016;2023-04-30T13:56:27;98376.72;;;17.54;54.82
22311;BME280;11323;49.610;11.016;2023-04-30T14:01:28;98379.72;;;17.51;54.79
22311;BME280;11323;49.610;11.016;2023-04-30T14:06:28;98361.06;;;17.52;55.03
22311;BME280;11323;49.610;11.016;2023-04-30T14:11:29;98347.91;;;17.52;54.92
22311;BME280;11323;49.610;11.016;2023-04-30T14:16:30;98357.28;;;17.55;54.78
22311;BME280;11323;49.610;11.016;2023-04-30T14:21:31;98354.63;;;17.55;55.04
22311;BME280;11323;49.610;11.016;2023-04-30T14:26:32;98343.72;;;17.58;55.73
22311;BME280;11323;49.610;11.016;2023-04-30T14:31:32;98335.44;;;17.61;55.41
22311;BME280;11323;49.610;11.016;2023-04-30T14:36:33;98329.16;;;17.62;55.23
22311;BME280;11323;49.610;11.016;2023-04-30T14:41:35;98319.19;;;17.57;55.09
22311;BME280;11323;49.610;11.016;2023-04-30T14:46:35;98317.19;;;17.59;55.18
22311;BME280;11323;49.610;11.016;2023-04-30T14:51:36;98312.72;;;17.60;55.36
22311;BME280;11323;49.610;11.016;2023-04-30T14:56:36;98309.09;;;17.61;54.87
22311;BME280;11323;49.610;11.016;2023-04-30T15:01:37;98300.19;;;17.62;55.13
22311;BME280;11323;49.610;11.016;2023-04-30T15:06:37;98300.81;;;17.64;55.01
22311;BME280;11323;49.610;11.016;2023-04-30T15:11:37;98316.44;;;17.66;55.25
22311;BME280;11323;49.610;11.016;2023-04-30T15:16:38;98304.44;;;17.63;55.44
22311;BME280;11323;49.610;11.016;2023-04-30T15:21:38;98298.19;;;17.64;55.20
22311;BME280;11323;49.610;11.016;2023-04-30T15:26:39;98287.63;;;17.64;55.48
22311;BME280;11323;49.610;11.016;2023-04-30T15:31:40;98298.63;;;17.68;55.18
22311;BME280;11323;49.610;11.016;2023-04-30T15:36:41;98288.88;;;17.68;55.07
22311;BME280;11323;49.610;11.016;2023-04-30T15:41:41;98286.88;;;17.70;55.65
22311;BME280;11323;49.610;11.016;2023-04-30T15:46:41;98285.25;;;17.69;55.43
22311;BME280;11323;49.610;11.016;2023-04-30T15:51:42;98283.88;;;17.73;55.44
22311;BME280;11323;49.610;11.016;2023-04-30T15:56:42;98280.44;;;17.73;55.60
22311;BME280;11323;49.610;11.016;2023-04-30T16:01:43;98273.13;;;17.75;56.27
22311;BME280;11323;49.610;11.016;2023-04-30T16:06:43;98275.22;;;17.80;56.91
22311;BME280;11323;49.610;11.016;2023-04-30T16:11:45;98276.47;;;17.84;56.96
22311;BME280;11323;49.610;11.016;2023-04-30T16:16:46;98262.31;;;17.85;56.95
22311;BME280;11323;49.610;11.016;2023-04-30T16:21:46;98273.72;;;17.92;57.34
22311;BME280;11323;49.610;11.016;2023-04-30T16:26:47;98271.06;;;17.92;57.22
22311;BME280;11323;49.610;11.016;2023-04-30T16:31:47;98270.72;;;17.95;56.99
22311;BME280;11323;49.610;11.016;2023-04-30T16:36:48;98264.81;;;17.93;56.67
22311;BME280;11323;49.610;11.016;2023-04-30T16:41:48;98257.53;;;17.95;56.48
22311;BME280;11323;49.610;11.016;2023-04-30T16:46:48;98257.53;;;17.95;56.48
22311;BME280;11323;49.610;11.016;2023-04-30T16:51:50;98256.72;;;17.95;56.31
22311;BME280;11323;49.610;11.016;2023-04-30T16:56:50;98260.81;;;17.97;56.27
22311;BME280;11323;49.610;11.016;2023-04-30T17:01:50;98259.16;;;17.96;56.15
22311;BME280;11323;49.610;11.016;2023-04-30T17:06:55;98246.34;;;17.93;56.18
22311;BME280;11323;49.610;11.016;2023-04-30T17:11:56;98258.53;;;17.94;56.39
22311;BME280;11323;49.610;11.016;2023-04-30T17:16:56;98263.47;;;17.97;56.12
22311;BME280;11323;49.610;11.016;2023-04-30T17:21:57;98264.81;;;17.93;56.50
22311;BME280;11323;49.610;11.016;2023-04-30T17:26:57;98270.91;;;17.94;56.35
22311;BME280;11323;49.610;11.016;2023-04-30T17:32:00;98272.06;;;17.91;56.43
22311;BME280;11323;49.610;11.016;2023-04-30T17:37:00;98260.94;;;17.89;56.53
22311;BME280;11323;49.610;11.016;2023-04-30T17:42:00;98269.44;;;17.91;56.54
22311;BME280;11323;49.610;11.016;2023-04-30T17:47:02;98261.09;;;17.87;56.58
22311;BME280;11323;49.610;11.016;2023-04-30T17:52:03;98260.28;;;17.87;56.60
22311;BME280;11323;49.610;11.016;2023-04-30T17:57:04;98263.56;;;17.89;56.79
22311;BME280;11323;49.610;11.016;2023-04-30T18:02:05;98262.72;;;17.88;56.79
22311;BME280;11323;49.610;11.016;2023-04-30T18:07:06;98254.19;;;17.86;56.44
22311;BME280;11323;49.610;11.016;2023-04-30T18:12:07;98261.09;;;17.87;56.49
22311;BME280;11323;49.610;11.016;2023-04-30T18:17:07;98262.31;;;17.85;56.71
22311;BME280;11323;49.610;11.016;2023-04-30T18:22:08;98259.28;;;17.88;56.53
22311;BME280;11323;49.610;11.016;2023-04-30T18:27:08;98268.72;;;17.97;57.03
22311;BME280;11323;49.610;11.016;2023-04-30T18:32:12;98255.56;;;17.97;57.44
22311;BME280;11323;49.610;11.016;2023-04-30T18:37:12;98262.06;;;18.01;56.92
22311;BME280;11323;49.610;11.016;2023-04-30T18:42:13;98258.41;;;18.02;57.47
22311;BME280;11323;49.610;11.016;2023-04-30T18:47:13;98269.88;;;18.10;57.32
22311;BME280;11323;49.610;11.016;2023-04-30T18:52:14;98256.69;;;18.10;57.65
22311;BME280;11323;49.610;11.016;2023-04-30T18:57:14;98260.13;;;18.10;57.54
22311;BME280;11323;49.610;11.016;2023-04-30T19:02:17;98274.00;;;18.19;57.82
22311;BME280;11323;49.610;11.016;2023-04-30T19:07:17;98268.72;;;18.19;57.66
22311;BME280;11323;49.610;11.016;2023-04-30T19:12:18;98275.84;;;18.25;57.78
22311;BME280;11323;49.610;11.016;2023-04-30T19:17:18;98273.22;;;18.25;57.59
22311;BME280;11323;49.610;11.016;2023-04-30T19:22:19;98269.22;;;18.29;57.85
22311;BME280;11323;49.610;11.016;2023-04-30T19:27:19;98267.81;;;18.33;58.30
22311;BME280;11323;49.610;11.016;2023-04-30T19:32:20;98277.19;;;18.36;58.14
22311;BME280;11323;49.610;11.016;2023-04-30T19:37:20;98283.50;;;18.42;58.16
22311;BME280;11323;49.610;11.016;2023-04-30T19:42:21;98292.84;;;18.44;58.38
22311;BME280;11323;49.610;11.016;2023-04-30T19:47:21;98298.56;;;18.48;58.36
22311;BME280;11323;49.610;11.016;2023-04-30T19:52:22;98289.66;;;18.49;58.07
22311;BME280;11323;49.610;11.016;2023-04-30T19:57:22;98290.47;;;18.49;58.03
22311;BME280;11323;49.610;11.016;2023-04-30T20:02:23;98296.97;;;18.53;57.90
22311;BME280;11323;49.610;11.016;2023-04-30T20:07:23;98294.53;;;18.52;58.10
22311;BME280;11323;49.610;11.016;2023-04-30T20:12:23;98305.34;;;18.57;58.31
22311;BME280;11323;49.610;11.016;2023-04-30T20:17:24;98289.13;;;18.60;58.70
22311;BME280;11323;49.610;11.016;2023-04-30T20:22:24;98308.22;;;18.62;58.23
22311;BME280;11323;49.610;11.016;2023-04-30T20:27:26;98297.66;;;18.62;58.24
22311;BME280;11323;49.610;11.016;2023-04-30T20:32:27;98293.75;;;18.58;58.43
22311;BME280;11323;49.610;11.016;2023-04-30T20:37:27;98295.03;;;18.62;58.34
22311;BME280;11323;49.610;11.016;2023-04-30T20:42:28;98309.22;;;18.61;58.36
22311;BME280;11323;49.610;11.016;2023-04-30T20:47:28;98305.16;;;18.59;58.30
22311;BME280;11323;49.610;11.016;2023-04-30T20:52:29;98308.00;;;18.57;58.38
22311;BME280;11323;49.610;11.016;2023-04-30T20:57:31;98304.53;;;18.57;58.41
22311;BME280;11323;49.610;11.016;2023-04-30T21:02:32;98309.00;;;18.56;58.42
22311;BME280;11323;49.610;11.016;2023-04-30T21:07:33;98302.09;;;18.55;58.24
22311;BME280;11323;49.610;11.016;2023-04-30T21:12:34;98311.63;;;18.56;58.44
22311;BME280;11323;49.610;11.016;2023-04-30T21:17:34;98304.91;;;18.53;58.35
22311;BME280;11323;49.610;11.016;2023-04-30T21:22:37;98304.91;;;18.53;58.20
22311;BME280;11323;49.610;11.016;2023-04-30T21:27:38;98298.81;;;18.53;58.33
22311;BME280;11323;49.610;11.016;2023-04-30T21:32:42;98293.75;;;18.51;58.14
22311;BME280;11323;49.610;11.016;2023-04-30T21:37:42;98301.47;;;18.53;58.11
22311;BME280;11323;49.610;11.016;2023-04-30T21:42:43;98303.09;;;18.54;57.88
22311;BME280;11323;49.610;11.016;2023-04-30T21:47:45;98292.13;;;18.50;58.11
22311;BME280;11323;49.610;11.016;2023-04-30T21:52:46;98286.84;;;18.50;57.93
22311;BME280;11323;49.610;11.016;2023-04-30T21:57:49;98289.66;;;18.49;58.03
22311;BME280;11323;49.610;11.016;2023-04-30T22:02:49;98276.66;;;18.47;57.73
22311;BME280;11323;49.610;11.016;2023-04-30T22:07:50;98282.13;;;18.46;58.00
22311;BME280;11323;49.610;11.016;2023-04-30T22:12:50;98279.88;;;18.43;57.68
22311;BME280;11323;49.610;11.016;2023-04-30T22:17:51;98286.00;;;18.50;58.00
22311;BME280;11323;49.610;11.016;2023-04-30T22:22:51;98281.50;;;18.44;57.85
22311;BME280;11323;49.610;11.016;2023-04-30T22:27:52;98294.91;;;18.49;57.90
22311;BME280;11323;49.610;11.016;2023-04-30T22:32:56;98279.88;;;18.43;57.93
22311;BME280;11323;49.610;11.016;2023-04-30T22:37:56;98280.28;;;18.46;57.70
22311;BME280;11323;49.610;11.016;2023-04-30T22:42:57;98274.22;;;18.46;57.82
22311;BME280;11323;49.610;11.016;2023-04-30T22:47:58;98289.66;;;18.49;57.65
22311;BME280;11323;49.610;11.016;2023-04-30T22:52:58;98270.94;;;18.44;57.77
22311;BME280;11323;49.610;11.016;2023-04-30T22:57:59;98287.22;;;18.47;57.89
22311;BME280;11323;49.610;11.016;2023-04-30T23:03:00;98265.25;;;18.40;57.93
22311;BME280;11323;49.610;11.016;2023-04-30T23:08:01;98276.22;;;18.44;57.61
22311;BME280;11323;49.610;11.016;2023-04-30T23:13:01;98271.31;;;18.41;57.75
22311;BME280;11323;49.610;11.016;2023-04-30T23:18:02;98260.13;;;18.39;57.54
22311;BME280;11323;49.610;11.016;2023-04-30T23:23:04;98277.22;;;18.43;57.75
22311;BME280;11323;49.610;11.016;2023-04-30T23:28:04;98263.59;;;18.39;57.81
22311;BME280;11323;49.610;11.016;2023-04-30T23:33:05;98266.03;;;18.41;57.75
22311;BME280;11323;49.610;11.016;2023-04-30T23:38:05;98259.13;;;18.40;57.44
22311;BME280;11323;49.610;11.016;2023-04-30T23:43:07;98260.75;;;18.41;57.42
22311;BME280;11323;49.610;11.016;2023-04-30T23:48:07;98252.22;;;18.39;57.63
22311;BME280;11323;49.610;11.016;2023-04-30T23:53:09;98241.66;;;18.39;57.70
22311;BME280;11323;49.610;11.016;2023-04-30T23:58:09;98233.97;;;18.37;57.82
